Darstellungsparameter: Aktuell verwendete Einstellungen:
Skalierung der Graphiken ... ?
xyx+y,   Skalierungsfaktor:      Skalierung: Modus: x, Faktor: 1
Darstellungszeitraum ... ?
Vom - - bis: - -   Zeitraum: 12.10.2019 - 12.10.2019
Min/Max/Avg-Anzeige ... ?
Zeige MMA aktuell
Zeige MMA Monat
Zeige MMA alles
Zeige --A aktuell
Zeige --A Monat
Zeige --A alles
Keine MMA-Anzeige
MMA:
Minimum Maximum Average (ber die Originaldaten)
MMA-Basis: 14.04.2020 - 16.05.2020
Quicknavigation für Darstellung... ?
Tage:      1T, 2T, 3T, 5T -1T -2T -3T -5T +1T +2T +3T +5T
Wochen: 1W, 2W, 3W -1W -2W -3W +1W +2W +3W
Monate: 1M, 3M, 6M -1M -3M -6M +1M +3M +6M
Jahre:    1J, 3J, 5J, 10J -1J -3J -5J -10J +1J +3J +5J +10J
Nutze für die Darstellung ... ?
Originaldaten oder Mittelwerte auf ...
Stundenbasis Tagesbasis Wochenbasis
Monatsbasis Jahresbasis      Datenbasis: Original-Daten
Darstellen als:
Statistik (Auto) Statistik J:M      Darstellung:
Zur Graphik,    zurück zur Übersicht aller Sensoren.
 
Tabellarische Datenbersicht: ?
 
Sensor: Nr:Datum:Temp:Abs-Feuchte:Windchill:Wind:
Aussen-T/F 1 12-10-2019 00:00:00 11.4 C 9.75 g/m*3 11.4 C 0 km/h
2 12-10-2019 00:05:00 11.3 C 9.69 g/m*3 11.3 C 0 km/h
3 12-10-2019 00:10:00 11.3 C 9.69 g/m*3 11.3 C 0 km/h
4 12-10-2019 00:15:00 11.3 C 9.69 g/m*3 11.3 C 0 km/h
5 12-10-2019 00:20:00 11.2 C 9.63 g/m*3 11.2 C 0 km/h
6 12-10-2019 00:25:00 11.2 C 9.63 g/m*3 11.2 C 0 km/h
7 12-10-2019 00:30:00 11.1 C 9.57 g/m*3 11.1 C 0 km/h
8 12-10-2019 00:35:00 11.1 C 9.57 g/m*3 11.1 C 0 km/h
9 12-10-2019 00:40:00 11 C 9.61 g/m*3 11 C 0 km/h
10 12-10-2019 00:45:00 10.9 C 9.45 g/m*3 10.9 C 0 km/h
11 12-10-2019 00:50:00 10.8 C 9.39 g/m*3 10.8 C 0 km/h
12 12-10-2019 00:55:00 10.8 C 9.39 g/m*3 10.8 C 0 km/h
13 12-10-2019 01:00:00 10.7 C 9.43 g/m*3 10.7 C 0 km/h
14 12-10-2019 01:05:00 10.7 C 9.43 g/m*3 10.7 C 0 km/h
15 12-10-2019 01:10:00 10.7 C 9.43 g/m*3 10.7 C 0 km/h
16 12-10-2019 01:15:00 10.7 C 9.43 g/m*3 10.7 C 0 km/h
17 12-10-2019 01:20:00 10.7 C 9.43 g/m*3 10.7 C 0 km/h
18 12-10-2019 01:25:00 10.6 C 9.37 g/m*3 10.6 C 0 km/h
19 12-10-2019 01:30:00 10.6 C 9.37 g/m*3 10.6 C 0 km/h
20 12-10-2019 01:35:00 10.6 C 9.37 g/m*3 10.6 C 0 km/h
21 12-10-2019 01:40:00 10.6 C 9.37 g/m*3 10.6 C 0 km/h
22 12-10-2019 01:45:00 10.6 C 9.37 g/m*3 10.6 C 0 km/h
23 12-10-2019 01:50:00 10.6 C 9.37 g/m*3 10.6 C 0 km/h
24 12-10-2019 01:55:00 10.5 C 9.31 g/m*3 10.5 C 0 km/h
25 12-10-2019 02:00:00 10.4 C 9.25 g/m*3 10.4 C 0 km/h
Sensor: Nr:Datum:Temp:Abs-Feuchte:Windchill:Wind:
Aussen-T/F 26 12-10-2019 02:05:00 10.4 C 9.25 g/m*3 10.4 C 0 km/h
27 12-10-2019 02:10:00 10.4 C 9.25 g/m*3 10.4 C 0 km/h
28 12-10-2019 02:15:00 10.4 C 9.25 g/m*3 10.4 C 0 km/h
29 12-10-2019 02:20:00 10.3 C 9.19 g/m*3 10.3 C 0 km/h
30 12-10-2019 02:25:00 10.3 C 9.19 g/m*3 10.3 C 0 km/h
31 12-10-2019 02:30:00 10.3 C 9.19 g/m*3 10.3 C 0 km/h
32 12-10-2019 02:35:00 10.3 C 9.19 g/m*3 10.3 C 0 km/h
33 12-10-2019 02:40:00 10.3 C 9.19 g/m*3 10.3 C 1.6 km/h
34 12-10-2019 02:45:00 10.2 C 9.14 g/m*3 10.2 C 0 km/h
35 12-10-2019 02:50:00 10.2 C 9.14 g/m*3 10.2 C 0 km/h
36 12-10-2019 02:55:00 10.2 C 9.14 g/m*3 10.2 C 0 km/h
37 12-10-2019 03:00:00 10.2 C 9.14 g/m*3 10.2 C 0 km/h
38 12-10-2019 03:05:00 10.2 C 9.14 g/m*3 10.2 C 0 km/h
39 12-10-2019 03:10:00 10.2 C 9.14 g/m*3 10.2 C 0 km/h
40 12-10-2019 03:15:00 10.1 C 9.08 g/m*3 10.1 C 0 km/h
41 12-10-2019 03:20:00 10.1 C 9.08 g/m*3 10.1 C 0 km/h
42 12-10-2019 03:25:00 9.9 C 8.96 g/m*3 9.9 C 0 km/h
43 12-10-2019 03:30:00 9.9 C 8.96 g/m*3 9.9 C 0 km/h
44 12-10-2019 03:35:00 9.8 C 8.91 g/m*3 9.8 C 0 km/h
45 12-10-2019 03:40:00 9.8 C 8.91 g/m*3 9.8 C 0 km/h
46 12-10-2019 03:45:00 9.8 C 8.91 g/m*3 9.8 C 0 km/h
47 12-10-2019 03:50:00 9.8 C 9 g/m*3 9.8 C 0 km/h
48 12-10-2019 03:55:00 9.7 C 8.85 g/m*3 9.7 C 0 km/h
49 12-10-2019 04:00:00 9.7 C 8.94 g/m*3 9.7 C 0 km/h
50 12-10-2019 04:05:00 9.8 C 9 g/m*3 9.8 C 0 km/h
Sensor: Nr:Datum:Temp:Abs-Feuchte:Windchill:Wind:
Aussen-T/F 51 12-10-2019 04:10:00 9.8 C 9 g/m*3 9.8 C 0 km/h
52 12-10-2019 04:15:00 10 C 9.11 g/m*3 10 C 0 km/h
53 12-10-2019 04:20:00 10.2 C 9.23 g/m*3 10.2 C 0 km/h
54 12-10-2019 04:25:00 10.3 C 9.29 g/m*3 10.3 C 0 km/h
55 12-10-2019 04:30:00 10.3 C 9.29 g/m*3 10.3 C 0 km/h
56 12-10-2019 04:35:00 10.2 C 9.23 g/m*3 10.2 C 0 km/h
57 12-10-2019 04:40:00 10.1 C 9.17 g/m*3 10.1 C 0 km/h
58 12-10-2019 04:45:00 10 C 9.11 g/m*3 10 C 0 km/h
59 12-10-2019 04:50:00 9.9 C 9.06 g/m*3 9.9 C 0 km/h
60 12-10-2019 04:55:00 9.9 C 9.06 g/m*3 9.9 C 0 km/h
61 12-10-2019 05:00:00 9.9 C 9.06 g/m*3 9.9 C 0 km/h
62 12-10-2019 05:05:00 9.9 C 9.06 g/m*3 9.9 C 0 km/h
63 12-10-2019 05:10:00 9.9 C 9.06 g/m*3 9.9 C 0 km/h
64 12-10-2019 05:15:00 9.9 C 9.06 g/m*3 9.9 C 0 km/h
65 12-10-2019 05:20:00 9.9 C 9.06 g/m*3 9.9 C 0 km/h
66 12-10-2019 05:25:00 9.7 C 8.94 g/m*3 9.7 C 0 km/h
67 12-10-2019 05:30:00 9.6 C 8.79 g/m*3 9.6 C 0 km/h
68 12-10-2019 05:35:00 9.4 C 8.68 g/m*3 9.4 C 0 km/h
69 12-10-2019 05:40:00 9.3 C 8.63 g/m*3 9.3 C 0 km/h
70 12-10-2019 05:45:00 9.2 C 8.57 g/m*3 9.2 C 0 km/h
71 12-10-2019 05:50:00 9.2 C 8.57 g/m*3 9.2 C 0 km/h
72 12-10-2019 05:55:00 9.1 C 8.61 g/m*3 9.1 C 0 km/h
73 12-10-2019 06:00:00 9.1 C 8.61 g/m*3 9.1 C 0 km/h
74 12-10-2019 06:05:00 9.1 C 8.61 g/m*3 9.1 C 0 km/h
75 12-10-2019 06:10:00 9.1 C 8.61 g/m*3 9.1 C 0 km/h
Sensor: Nr:Datum:Temp:Abs-Feuchte:Windchill:Wind:
Aussen-T/F 76 12-10-2019 06:15:00 9.1 C 8.61 g/m*3 9.1 C 0 km/h
77 12-10-2019 06:20:00 9 C 8.55 g/m*3 9 C 0 km/h
78 12-10-2019 06:25:00 8.9 C 8.41 g/m*3 8.9 C 0 km/h
79 12-10-2019 06:30:00 8.8 C 8.44 g/m*3 8.8 C 0 km/h
80 12-10-2019 06:35:00 8.8 C 8.44 g/m*3 8.8 C 0 km/h
81 12-10-2019 06:40:00 8.7 C 8.39 g/m*3 8.7 C 0 km/h
82 12-10-2019 06:45:00 8.7 C 8.39 g/m*3 8.7 C 0 km/h
83 12-10-2019 06:50:00 8.7 C 8.39 g/m*3 8.7 C 0 km/h
84 12-10-2019 06:55:00 8.7 C 8.39 g/m*3 8.7 C 0 km/h
85 12-10-2019 07:00:00 8.8 C 8.44 g/m*3 8.8 C 0 km/h
86 12-10-2019 07:05:00 8.8 C 8.44 g/m*3 8.8 C 0 km/h
87 12-10-2019 07:10:00 8.8 C 8.44 g/m*3 8.8 C 0 km/h
88 12-10-2019 07:15:00 8.8 C 8.44 g/m*3 8.8 C 0 km/h
89 12-10-2019 07:20:00 8.8 C 8.44 g/m*3 8.8 C 0 km/h
90 12-10-2019 07:25:00 8.8 C 8.44 g/m*3 8.8 C 0 km/h
91 12-10-2019 07:30:00 8.7 C 8.39 g/m*3 8.7 C 0 km/h
92 12-10-2019 07:35:00 8.7 C 8.39 g/m*3 8.7 C 0 km/h
93 12-10-2019 07:40:00 8.6 C 8.34 g/m*3 8.6 C 0 km/h
94 12-10-2019 07:45:00 8.6 C 8.34 g/m*3 8.6 C 0 km/h
95 12-10-2019 07:50:00 8.7 C 8.39 g/m*3 8.7 C 0 km/h
96 12-10-2019 07:55:00 8.8 C 8.44 g/m*3 8.8 C 0 km/h
97 12-10-2019 08:00:00 8.9 C 8.5 g/m*3 8.9 C 0 km/h
98 12-10-2019 08:05:00 9.1 C 8.61 g/m*3 9.1 C 0 km/h
99 12-10-2019 08:10:00 9.1 C 8.61 g/m*3 9.1 C 0 km/h
100 12-10-2019 08:15:00 9.1 C 8.61 g/m*3 9.1 C 0 km/h
Sensor: Nr:Datum:Temp:Abs-Feuchte:Windchill:Wind:
Aussen-T/F 101 12-10-2019 08:20:00 9 C 8.55 g/m*3 9 C 0 km/h
102 12-10-2019 08:25:00 8.9 C 8.5 g/m*3 8.9 C 0 km/h
103 12-10-2019 08:30:00 8.8 C 8.44 g/m*3 8.8 C 0 km/h
104 12-10-2019 08:35:00 8.8 C 8.44 g/m*3 8.8 C 0 km/h
105 12-10-2019 08:40:00 8.7 C 8.39 g/m*3 8.7 C 0 km/h
106 12-10-2019 08:45:00 8.7 C 8.39 g/m*3 8.7 C 0 km/h
107 12-10-2019 08:50:00 8.6 C 8.34 g/m*3 8.6 C 0 km/h
108 12-10-2019 08:55:00 8.7 C 8.39 g/m*3 8.7 C 0 km/h
109 12-10-2019 09:00:00 8.7 C 8.39 g/m*3 8.7 C 0 km/h
110 12-10-2019 09:05:00 8.8 C 8.44 g/m*3 8.8 C 0 km/h
111 12-10-2019 09:10:00 8.8 C 8.44 g/m*3 8.8 C 0 km/h
112 12-10-2019 09:15:00 9 C 8.55 g/m*3 9 C 3.2 km/h
113 12-10-2019 09:20:00 9.1 C 8.61 g/m*3 9.1 C 0 km/h
114 12-10-2019 09:25:00 9.2 C 8.66 g/m*3 9.2 C 0 km/h
115 12-10-2019 09:30:00 9.2 C 8.66 g/m*3 9.2 C 0 km/h
116 12-10-2019 09:35:00 9.3 C 8.72 g/m*3 9.3 C 0 km/h
117 12-10-2019 09:40:00 9.4 C 8.77 g/m*3 9.4 C 0 km/h
118 12-10-2019 09:45:00 9.7 C 9.03 g/m*3 9.7 C 1.6 km/h
119 12-10-2019 09:50:00 10 C 9.21 g/m*3 10 C 1.6 km/h
120 12-10-2019 09:55:00 10.2 C 9.33 g/m*3 10.2 C 4.8 km/h
121 12-10-2019 10:00:00 10.5 C 9.5 g/m*3 10.5 C 4.8 km/h
122 12-10-2019 10:05:00 10.8 C 9.69 g/m*3 10.8 C 3.2 km/h
123 12-10-2019 10:10:00 11.1 C 9.87 g/m*3 11.1 C 0 km/h
124 12-10-2019 10:15:00 11.2 C 9.93 g/m*3 11.2 C 0 km/h
125 12-10-2019 10:20:00 11.4 C 10.06 g/m*3 11.4 C 1.6 km/h
Sensor: Nr:Datum:Temp:Abs-Feuchte:Windchill:Wind:
Aussen-T/F 126 12-10-2019 10:25:00 11.6 C 10.19 g/m*3 11.6 C 0 km/h
127 12-10-2019 10:30:00 11.8 C 10.31 g/m*3 11.8 C 4.8 km/h
128 12-10-2019 10:35:00 12 C 10.44 g/m*3 12 C 3.2 km/h
129 12-10-2019 10:40:00 12.2 C 10.58 g/m*3 12.2 C 1.6 km/h
130 12-10-2019 10:45:00 12.5 C 10.77 g/m*3 12.5 C 12.9 km/h
131 12-10-2019 10:50:00 12.8 C 10.98 g/m*3 12.8 C 12.9 km/h
132 12-10-2019 10:55:00 13.1 C 11.18 g/m*3 13.1 C 17.7 km/h
133 12-10-2019 11:00:00 13.3 C 11.32 g/m*3 13.3 C 4.8 km/h
134 12-10-2019 11:05:00 13.4 C 11.39 g/m*3 13.4 C 11.3 km/h
135 12-10-2019 11:10:00 13.6 C 11.53 g/m*3 13.6 C 8.1 km/h
136 12-10-2019 11:15:00 13.6 C 11.42 g/m*3 13.6 C 3.2 km/h
137 12-10-2019 11:20:00 13.7 C 11.37 g/m*3 13.7 C 4.8 km/h
138 12-10-2019 11:25:00 13.9 C 11.39 g/m*3 13.9 C 17.7 km/h
139 12-10-2019 11:30:00 14.2 C 11.36 g/m*3 14.2 C 14.5 km/h
140 12-10-2019 11:35:00 14.5 C 11.32 g/m*3 14.5 C 9.7 km/h
141 12-10-2019 11:40:00 14.8 C 11.27 g/m*3 14.8 C 8.1 km/h
142 12-10-2019 11:45:00 15.1 C 11.35 g/m*3 15.1 C 9.7 km/h
143 12-10-2019 11:50:00 15.3 C 11.23 g/m*3 15.3 C 9.7 km/h
144 12-10-2019 11:55:00 15.6 C 11.17 g/m*3 15.6 C 16.1 km/h
145 12-10-2019 12:00:00 15.9 C 11.38 g/m*3 15.9 C 11.3 km/h
146 12-10-2019 12:05:00 16.1 C 11.38 g/m*3 16.1 C 11.3 km/h
147 12-10-2019 12:10:00 16.1 C 11.38 g/m*3 16.1 C 6.4 km/h
148 12-10-2019 12:15:00 16.3 C 11.38 g/m*3 16.3 C 14.5 km/h
149 12-10-2019 12:20:00 16.4 C 11.31 g/m*3 16.4 C 8.1 km/h
150 12-10-2019 12:25:00 16.5 C 11.51 g/m*3 16.5 C 6.4 km/h
Sensor: Nr:Datum:Temp:Abs-Feuchte:Windchill:Wind:
Aussen-T/F 151 12-10-2019 12:30:00 16.5 C 11.51 g/m*3 16.5 C 4.8 km/h
152 12-10-2019 12:35:00 16.5 C 11.51 g/m*3 16.5 C 1.6 km/h
153 12-10-2019 12:40:00 16.6 C 11.58 g/m*3 16.6 C 4.8 km/h
154 12-10-2019 12:45:00 16.6 C 11.44 g/m*3 16.6 C 8.1 km/h
155 12-10-2019 12:50:00 16.8 C 11.58 g/m*3 16.8 C 8.1 km/h
156 12-10-2019 12:55:00 17.1 C 11.65 g/m*3 17.1 C 8.1 km/h
157 12-10-2019 13:00:00 17.2 C 11.57 g/m*3 17.2 C 11.3 km/h
158 12-10-2019 13:05:00 17.3 C 11.49 g/m*3 17.3 C 6.4 km/h
159 12-10-2019 13:10:00 17.4 C 11.56 g/m*3 17.4 C 8.1 km/h
160 12-10-2019 13:15:00 17.6 C 11.7 g/m*3 17.6 C 9.7 km/h
161 12-10-2019 13:20:00 17.7 C 11.62 g/m*3 17.7 C 12.9 km/h
162 12-10-2019 13:25:00 17.8 C 11.54 g/m*3 17.8 C 14.5 km/h
163 12-10-2019 13:30:00 18.1 C 11.43 g/m*3 18.1 C 14.5 km/h
164 12-10-2019 13:35:00 18.3 C 11.73 g/m*3 18.3 C 16.1 km/h
165 12-10-2019 13:40:00 18.3 C 11.57 g/m*3 18.3 C 16.1 km/h
166 12-10-2019 13:45:00 18.5 C 11.71 g/m*3 18.5 C 9.7 km/h
167 12-10-2019 13:50:00 18.7 C 11.85 g/m*3 18.7 C 9.7 km/h
168 12-10-2019 13:55:00 18.8 C 11.76 g/m*3 18.8 C 12.9 km/h
169 12-10-2019 14:00:00 18.8 C 11.76 g/m*3 18.8 C 16.1 km/h
170 12-10-2019 14:05:00 18.8 C 11.76 g/m*3 18.8 C 11.3 km/h
171 12-10-2019 14:10:00 18.9 C 12.15 g/m*3 18.9 C 8.1 km/h
172 12-10-2019 14:15:00 19.1 C 11.64 g/m*3 19.1 C 17.7 km/h
173 12-10-2019 14:20:00 19.3 C 11.94 g/m*3 19.3 C 16.1 km/h
174 12-10-2019 14:25:00 19.4 C 11.85 g/m*3 19.4 C 12.9 km/h
175 12-10-2019 14:30:00 19.6 C 11.82 g/m*3 19.6 C 11.3 km/h
Sensor: Nr:Datum:Temp:Abs-Feuchte:Windchill:Wind:
Aussen-T/F 176 12-10-2019 14:35:00 19.7 C 11.89 g/m*3 19.7 C 12.9 km/h
177 12-10-2019 14:40:00 19.8 C 11.79 g/m*3 19.8 C 12.9 km/h
178 12-10-2019 14:45:00 19.9 C 11.68 g/m*3 19.9 C 22.5 km/h
179 12-10-2019 14:50:00 19.8 C 11.61 g/m*3 19.8 C 11.3 km/h
180 12-10-2019 14:55:00 19.8 C 11.61 g/m*3 19.8 C 9.7 km/h
181 12-10-2019 15:00:00 19.8 C 11.79 g/m*3 19.8 C 14.5 km/h
182 12-10-2019 15:05:00 19.7 C 11.89 g/m*3 19.7 C 8.1 km/h
183 12-10-2019 15:10:00 19.7 C 11.55 g/m*3 19.7 C 24.1 km/h
184 12-10-2019 15:15:00 19.8 C 11.79 g/m*3 19.8 C 16.1 km/h
185 12-10-2019 15:20:00 19.9 C 11.68 g/m*3 19.9 C 17.7 km/h
186 12-10-2019 15:25:00 19.9 C 12.03 g/m*3 19.9 C 14.5 km/h
187 12-10-2019 15:30:00 20 C 11.75 g/m*3 20 C 11.3 km/h
188 12-10-2019 15:35:00 20.1 C 11.99 g/m*3 20.1 C 12.9 km/h
189 12-10-2019 15:40:00 20.1 C 11.82 g/m*3 20.1 C 12.9 km/h
190 12-10-2019 15:45:00 20.1 C 11.82 g/m*3 20.1 C 17.7 km/h
191 12-10-2019 15:50:00 20.1 C 11.99 g/m*3 20.1 C 9.7 km/h
192 12-10-2019 15:55:00 20 C 12.27 g/m*3 20 C 17.7 km/h
193 12-10-2019 16:00:00 19.9 C 12.03 g/m*3 19.9 C 8.1 km/h
194 12-10-2019 16:05:00 19.8 C 11.96 g/m*3 19.8 C 11.3 km/h
195 12-10-2019 16:10:00 19.9 C 12.2 g/m*3 19.9 C 17.7 km/h
196 12-10-2019 16:15:00 19.8 C 12.3 g/m*3 19.8 C 9.7 km/h
197 12-10-2019 16:20:00 19.7 C 12.06 g/m*3 19.7 C 20.9 km/h
198 12-10-2019 16:25:00 19.6 C 11.99 g/m*3 19.6 C 11.3 km/h
199 12-10-2019 16:30:00 19.5 C 12.08 g/m*3 19.5 C 16.1 km/h
200 12-10-2019 16:35:00 19.4 C 12.01 g/m*3 19.4 C 16.1 km/h
Sensor: Nr:Datum:Temp:Abs-Feuchte:Windchill:Wind:
Aussen-T/F 201 12-10-2019 16:40:00 19.4 C 12.01 g/m*3 19.4 C 16.1 km/h
202 12-10-2019 16:45:00 19.4 C 12.18 g/m*3 19.4 C 16.1 km/h
203 12-10-2019 16:50:00 19.4 C 12.18 g/m*3 19.4 C 11.3 km/h
204 12-10-2019 16:55:00 19.4 C 12.35 g/m*3 19.4 C 9.7 km/h
205 12-10-2019 17:00:00 19.3 C 12.11 g/m*3 19.3 C 11.3 km/h
206 12-10-2019 17:05:00 19.3 C 12.11 g/m*3 19.3 C 11.3 km/h
207 12-10-2019 17:10:00 19.2 C 12.2 g/m*3 19.2 C 9.7 km/h
208 12-10-2019 17:15:00 19.1 C 12.13 g/m*3 19.1 C 14.5 km/h
209 12-10-2019 17:20:00 19 C 12.06 g/m*3 19 C 16.1 km/h
210 12-10-2019 17:25:00 18.9 C 11.99 g/m*3 18.9 C 11.3 km/h
211 12-10-2019 17:30:00 18.8 C 11.92 g/m*3 18.8 C 6.4 km/h
212 12-10-2019 17:35:00 18.7 C 12.01 g/m*3 18.7 C 8.1 km/h
213 12-10-2019 17:40:00 18.6 C 12.1 g/m*3 18.6 C 4.8 km/h
214 12-10-2019 17:45:00 18.6 C 12.1 g/m*3 18.6 C 12.9 km/h
215 12-10-2019 17:50:00 18.4 C 12.11 g/m*3 18.4 C 1.6 km/h
216 12-10-2019 17:55:00 18.3 C 12.35 g/m*3 18.3 C 3.2 km/h
217 12-10-2019 18:00:00 18.2 C 12.28 g/m*3 18.2 C 3.2 km/h
218 12-10-2019 18:05:00 18.1 C 12.36 g/m*3 18.1 C 0 km/h
219 12-10-2019 18:10:00 17.8 C 12.29 g/m*3 17.8 C 0 km/h
220 12-10-2019 18:15:00 17.7 C 12.37 g/m*3 17.7 C 0 km/h
221 12-10-2019 18:20:00 17.4 C 12.3 g/m*3 17.4 C 0 km/h
222 12-10-2019 18:25:00 17.3 C 12.23 g/m*3 17.3 C 0 km/h
223 12-10-2019 18:30:00 17.2 C 12.3 g/m*3 17.2 C 0 km/h
224 12-10-2019 18:35:00 17 C 12.15 g/m*3 17 C 0 km/h
225 12-10-2019 18:40:00 16.8 C 12.15 g/m*3 16.8 C 0 km/h
Sensor: Nr:Datum:Temp:Abs-Feuchte:Windchill:Wind:
Aussen-T/F 226 12-10-2019 18:45:00 16.6 C 12.01 g/m*3 16.6 C 0 km/h
227 12-10-2019 18:50:00 16.4 C 12 g/m*3 16.4 C 0 km/h
228 12-10-2019 18:55:00 16.2 C 12 g/m*3 16.2 C 0 km/h
229 12-10-2019 19:00:00 16.1 C 11.93 g/m*3 16.1 C 0 km/h
230 12-10-2019 19:05:00 15.9 C 11.92 g/m*3 15.9 C 0 km/h
231 12-10-2019 19:10:00 15.8 C 11.85 g/m*3 15.8 C 0 km/h
232 12-10-2019 19:15:00 15.8 C 11.85 g/m*3 15.8 C 0 km/h
233 12-10-2019 19:20:00 15.7 C 11.91 g/m*3 15.7 C 0 km/h
234 12-10-2019 19:25:00 15.6 C 11.84 g/m*3 15.6 C 0 km/h
235 12-10-2019 19:30:00 15.6 C 11.84 g/m*3 15.6 C 0 km/h
236 12-10-2019 19:35:00 15.5 C 11.76 g/m*3 15.5 C 0 km/h
237 12-10-2019 19:40:00 15.4 C 11.69 g/m*3 15.4 C 0 km/h
238 12-10-2019 19:45:00 15.4 C 11.82 g/m*3 15.4 C 0 km/h
239 12-10-2019 19:50:00 15.3 C 11.62 g/m*3 15.3 C 0 km/h
240 12-10-2019 19:55:00 15.3 C 11.62 g/m*3 15.3 C 0 km/h
241 12-10-2019 20:00:00 15.3 C 11.62 g/m*3 15.3 C 0 km/h
242 12-10-2019 20:05:00 15.3 C 11.62 g/m*3 15.3 C 0 km/h
243 12-10-2019 20:10:00 15.3 C 11.62 g/m*3 15.3 C 0 km/h
244 12-10-2019 20:15:00 15.2 C 11.55 g/m*3 15.2 C 0 km/h
245 12-10-2019 20:20:00 15.1 C 11.61 g/m*3 15.1 C 0 km/h
246 12-10-2019 20:25:00 15 C 11.54 g/m*3 15 C 0 km/h
247 12-10-2019 20:30:00 14.9 C 11.47 g/m*3 14.9 C 0 km/h
248 12-10-2019 20:35:00 14.8 C 11.53 g/m*3 14.8 C 0 km/h
249 12-10-2019 20:40:00 14.7 C 11.46 g/m*3 14.7 C 0 km/h
250 12-10-2019 20:45:00 14.6 C 11.39 g/m*3 14.6 C 0 km/h
Sensor: Nr:Datum:Temp:Abs-Feuchte:Windchill:Wind:
Aussen-T/F 251 12-10-2019 20:50:00 14.6 C 11.39 g/m*3 14.6 C 0 km/h
252 12-10-2019 20:55:00 14.4 C 11.25 g/m*3 14.4 C 0 km/h
253 12-10-2019 21:00:00 14.4 C 11.37 g/m*3 14.4 C 0 km/h
254 12-10-2019 21:05:00 14.3 C 11.3 g/m*3 14.3 C 0 km/h
255 12-10-2019 21:10:00 14.3 C 11.3 g/m*3 14.3 C 0 km/h
256 12-10-2019 21:15:00 14.3 C 11.43 g/m*3 14.3 C 0 km/h
257 12-10-2019 21:20:00 14.3 C 11.43 g/m*3 14.3 C 0 km/h
258 12-10-2019 21:25:00 14.3 C 11.43 g/m*3 14.3 C 1.6 km/h
259 12-10-2019 21:30:00 14.4 C 11.5 g/m*3 14.4 C 0 km/h
260 12-10-2019 21:35:00 14.4 C 11.62 g/m*3 14.4 C 0 km/h
261 12-10-2019 21:40:00 14.6 C 11.76 g/m*3 14.6 C 0 km/h
262 12-10-2019 21:45:00 14.7 C 11.71 g/m*3 14.7 C 6.4 km/h
263 12-10-2019 21:50:00 15 C 11.93 g/m*3 15 C 6.4 km/h
264 12-10-2019 21:55:00 15.2 C 11.94 g/m*3 15.2 C 4.8 km/h
265 12-10-2019 22:00:00 15.2 C 11.81 g/m*3 15.2 C 3.2 km/h
266 12-10-2019 22:05:00 15.2 C 11.81 g/m*3 15.2 C 0 km/h
267 12-10-2019 22:10:00 15.2 C 11.81 g/m*3 15.2 C 0 km/h
268 12-10-2019 22:15:00 15.1 C 11.74 g/m*3 15.1 C 0 km/h
269 12-10-2019 22:20:00 15 C 11.67 g/m*3 15 C 0 km/h
270 12-10-2019 22:25:00 14.9 C 11.73 g/m*3 14.9 C 0 km/h
271 12-10-2019 22:30:00 14.8 C 11.65 g/m*3 14.8 C 0 km/h
272 12-10-2019 22:35:00 14.7 C 11.58 g/m*3 14.7 C 0 km/h
273 12-10-2019 22:40:00 14.7 C 11.58 g/m*3 14.7 C 0 km/h
274 12-10-2019 22:45:00 14.7 C 11.71 g/m*3 14.7 C 0 km/h
275 12-10-2019 22:50:00 14.8 C 11.78 g/m*3 14.8 C 0 km/h
Sensor: Nr:Datum:Temp:Abs-Feuchte:Windchill:Wind:
Aussen-T/F 276 12-10-2019 22:55:00 14.8 C 11.78 g/m*3 14.8 C 0 km/h
277 12-10-2019 23:00:00 14.7 C 11.71 g/m*3 14.7 C 0 km/h
278 12-10-2019 23:05:00 14.6 C 11.64 g/m*3 14.6 C 0 km/h
279 12-10-2019 23:10:00 14.6 C 11.64 g/m*3 14.6 C 0 km/h
280 12-10-2019 23:15:00 14.5 C 11.57 g/m*3 14.5 C 0 km/h
281 12-10-2019 23:20:00 14.4 C 11.5 g/m*3 14.4 C 0 km/h
282 12-10-2019 23:25:00 14.3 C 11.43 g/m*3 14.3 C 0 km/h
283 12-10-2019 23:30:00 14.3 C 11.55 g/m*3 14.3 C 0 km/h
284 12-10-2019 23:35:00 14.3 C 11.55 g/m*3 14.3 C 0 km/h
285 12-10-2019 23:40:00 14.2 C 11.48 g/m*3 14.2 C 0 km/h
286 12-10-2019 23:45:00 14.2 C 11.48 g/m*3 14.2 C 0 km/h
287 12-10-2019 23:50:00 14.2 C 11.48 g/m*3 14.2 C 0 km/h
288 12-10-2019 23:55:00 14.2 C 11.48 g/m*3 14.2 C 0 km/h

Legende:
   Min
   Max


Maximal/Minimal-Werte vom 14.04.2020 - 16.05.2020

Sensor Min Max Avg
Temp
(Aussen-T/F)
-0.1 °C
15-04-2020  06:55:00
26.2 °C
17-04-2020  18:05:00
11.98 °C

Die Daten stammen von einer Davis Vantage Pro 2 Wetter-Station und werden unter Linux mit der Software wview2wettercgi und aufbereitet. Alle Angaben erfolgen ohne Gewähr für ihre Vollständigkeit oder Richtigkeit.
Kontakt: Rainer Krienke krienke@uni-koblenz.de . Meine Webseiten an der Uni Koblenz oder privat.
Version: $Revision: 0.78 $